Time;durP1;ratioP1;P1;durP2;ratioP2;P2;SDS_P1;SDS_P2;PMS_P1;PMS_P2;Temp;Humidity;BMP_temperature;BMP_pressure;BME280_temperature;BME280_humidity;BME280_pressure;Samples;Min_cycle;Max_cycle;Signal;HPM_P1;HPM_P2
2023/05/28 00:01:44;;;;;;;3.60;1.80;;;20.00;60.90;;;;;;5163888;27;45511;-71
2023/05/28 00:04:11;;;;;;;4.38;2.08;;;20.00;60.90;;;;;;5162096;27;45343;-71
2023/05/28 00:06:39;;;;;;;3.53;1.83;;;20.00;60.80;;;;;;5162888;27;45196;-72
2023/05/28 00:09:06;;;;;;;3.70;1.70;;;20.00;60.90;;;;;;5162422;27;45482;-71
2023/05/28 00:11:33;;;;;;;4.53;1.80;;;20.00;60.90;;;;;;5162479;27;46523;-70
2023/05/28 00:14:00;;;;;;;3.35;1.80;;;20.00;60.80;;;;;;5160245;27;46261;-71
2023/05/28 00:16:27;;;;;;;4.28;1.90;;;20.00;60.90;;;;;;5162376;27;45311;-71
2023/05/28 00:18:54;;;;;;;3.45;1.55;;;20.00;60.90;;;;;;5161332;27;45374;-71
2023/05/28 00:21:20;;;;;;;3.47;2.10;;;20.00;61.00;;;;;;5163895;27;47566;-71
2023/05/28 00:23:48;;;;;;;3.15;1.98;;;20.00;61.00;;;;;;5162794;27;46033;-71
2023/05/28 00:26:15;;;;;;;3.20;1.75;;;20.00;61.10;;;;;;5165355;27;45605;-71
2023/05/28 00:28:42;;;;;;;3.08;1.90;;;20.00;61.00;;;;;;5162585;27;45445;-71
2023/05/28 00:31:09;;;;;;;5.40;2.03;;;20.00;61.00;;;;;;5161678;27;47121;-70
2023/05/28 00:33:36;;;;;;;2.95;1.50;;;19.90;61.00;;;;;;5165815;27;45457;-71
2023/05/28 00:36:03;;;;;;;3.03;1.60;;;19.90;61.00;;;;;;5165232;27;45432;-71
2023/05/28 00:38:29;;;;;;;3.10;1.77;;;20.00;61.10;;;;;;5166771;27;45348;-72
2023/05/28 00:40:57;;;;;;;3.20;1.70;;;20.00;61.10;;;;;;5162239;27;47522;-71
2023/05/28 00:43:24;;;;;;;3.53;2.03;;;20.00;61.10;;;;;;5166565;27;45455;-71
2023/05/28 00:45:51;;;;;;;3.60;1.90;;;20.00;61.10;;;;;;5157529;27;45458;-71
2023/05/28 00:48:18;;;;;;;3.72;1.88;;;20.00;61.00;;;;;;5153231;27;45273;-71
2023/05/28 00:50:45;;;;;;;4.75;2.03;;;20.00;61.20;;;;;;5148577;27;46647;-70
2023/05/28 00:53:13;;;;;;;4.03;1.98;;;20.00;61.20;;;;;;5150378;27;45348;-71
2023/05/28 00:55:40;;;;;;;3.60;2.00;;;20.00;61.10;;;;;;5161572;27;45327;-71
2023/05/28 00:58:09;;;;;;;3.47;2.00;;;20.00;61.10;;;;;;5159085;27;45361;-71
2023/05/28 01:00:39;;;;;;;3.00;2.00;;;20.00;61.20;;;;;;5167945;27;46772;-71
2023/05/28 01:03:06;;;;;;;3.70;1.75;;;20.00;61.10;;;;;;5161162;27;45406;-71
2023/05/28 01:05:34;;;;;;;3.42;1.90;;;20.00;61.10;;;;;;5164974;27;45458;-71
2023/05/28 01:08:01;;;;;;;4.80;2.40;;;20.00;61.00;;;;;;5168130;27;45352;-71
2023/05/28 01:10:28;;;;;;;3.20;1.83;;;20.00;61.00;;;;;;5167915;27;46527;-71
2023/05/28 01:12:56;;;;;;;4.03;2.30;;;20.00;61.00;;;;;;5165640;27;45281;-71
2023/05/28 01:15:25;;;;;;;3.97;1.95;;;20.00;61.10;;;;;;5159461;27;45298;-71
2023/05/28 01:17:58;;;;;;;3.53;1.95;;;20.00;61.00;;;;;;5157514;27;45452;-71
2023/05/28 01:20:25;;;;;;;4.60;2.22;;;20.00;61.20;;;;;;5163960;27;45435;-71
2023/05/28 01:22:56;;;;;;;3.25;1.75;;;20.00;61.10;;;;;;5162432;27;45323;-71
2023/05/28 01:25:25;;;;;;;3.85;2.13;;;20.00;61.20;;;;;;5158290;27;45460;-70
2023/05/28 01:27:52;;;;;;;4.10;2.03;;;20.00;61.10;;;;;;5162480;27;45506;-71
2023/05/28 01:30:18;;;;;;;4.43;2.15;;;20.00;61.10;;;;;;5154897;27;48655;-71
2023/05/28 01:32:45;;;;;;;5.07;2.28;;;20.00;61.30;;;;;;5167634;27;45425;-71
2023/05/28 01:35:12;;;;;;;4.68;2.28;;;20.00;61.10;;;;;;5170453;27;45345;-71
2023/05/28 01:37:44;;;;;;;4.45;1.95;;;20.00;61.10;;;;;;5167191;27;45576;-71
2023/05/28 01:40:14;;;;;;;4.05;2.10;;;20.00;61.10;;;;;;5164004;27;48565;-71
2023/05/28 01:42:43;;;;;;;2.75;1.77;;;20.00;61.10;;;;;;5165316;27;46193;-71
2023/05/28 01:45:12;;;;;;;3.65;2.17;;;20.00;61.20;;;;;;5167066;27;45504;-71
2023/05/28 01:47:39;;;;;;;2.83;1.83;;;20.00;61.10;;;;;;5167254;27;45304;-71
2023/05/28 01:50:08;;;;;;;3.30;1.95;;;20.00;61.20;;;;;;5161024;27;46088;-71
2023/05/28 01:52:34;;;;;;;2.88;1.95;;;20.00;61.10;;;;;;5166424;27;45457;-71
2023/05/28 01:55:01;;;;;;;3.25;1.92;;;20.00;61.20;;;;;;5166438;27;45333;-71
2023/05/28 01:57:28;;;;;;;4.15;2.10;;;20.00;61.10;;;;;;5159383;27;45336;-71
2023/05/28 01:59:56;;;;;;;4.28;2.17;;;20.00;61.10;;;;;;5168526;27;47719;-71
2023/05/28 02:02:26;;;;;;;3.92;2.00;;;20.00;61.00;;;;;;5157720;27;45402;-71
2023/05/28 02:04:53;;;;;;;4.13;2.33;;;20.00;61.00;;;;;;5164465;27;45578;-71
2023/05/28 02:07:20;;;;;;;3.30;1.90;;;20.00;61.10;;;;;;5166928;27;45627;-71
2023/05/28 02:09:46;;;;;;;4.22;2.13;;;20.00;61.10;;;;;;5165056;27;45389;-71
2023/05/28 02:12:13;;;;;;;2.70;1.83;;;20.00;61.20;;;;;;5164715;27;45409;-71
2023/05/28 02:14:40;;;;;;;4.25;2.05;;;20.00;61.10;;;;;;5162893;27;45427;-71
2023/05/28 02:17:09;;;;;;;4.22;2.25;;;20.00;61.20;;;;;;5166529;27;45397;-72
2023/05/28 02:19:36;;;;;;;4.97;2.38;;;20.00;61.20;;;;;;5172584;27;45478;-71
2023/05/28 02:22:03;;;;;;;6.30;2.58;;;20.00;61.20;;;;;;5166907;27;45340;-71
2023/05/28 02:24:30;;;;;;;3.15;1.88;;;20.00;61.20;;;;;;5169260;27;45357;-71
2023/05/28 02:26:57;;;;;;;2.58;2.00;;;20.00;61.20;;;;;;5161978;27;45535;-72
2023/05/28 02:29:24;;;;;;;3.58;1.90;;;20.00;61.10;;;;;;5157702;27;47579;-71
2023/05/28 02:31:50;;;;;;;3.70;2.03;;;20.00;61.20;;;;;;5162179;27;45621;-71
2023/05/28 02:34:18;;;;;;;4.50;1.83;;;20.00;61.10;;;;;;5164464;27;45469;-70
2023/05/28 02:36:45;;;;;;;4.50;1.98;;;20.00;61.10;;;;;;5166289;27;45391;-71
2023/05/28 02:39:13;;;;;;;3.95;2.00;;;20.00;61.10;;;;;;5165960;27;47963;-71
2023/05/28 02:41:40;;;;;;;3.33;2.03;;;20.00;61.10;;;;;;5164738;27;45374;-71
2023/05/28 02:44:07;;;;;;;4.10;2.13;;;20.00;61.10;;;;;;5151725;27;45428;-72
2023/05/28 02:46:33;;;;;;;2.53;1.52;;;20.00;61.10;;;;;;5155399;27;45645;-72
2023/05/28 02:49:00;;;;;;;3.70;2.20;;;20.00;61.10;;;;;;5163717;27;45503;-70
2023/05/28 02:51:28;;;;;;;3.40;2.10;;;20.00;61.10;;;;;;5159359;27;45481;-71
2023/05/28 02:53:55;;;;;;;3.65;1.92;;;20.00;61.10;;;;;;5166655;27;45351;-71
2023/05/28 02:56:22;;;;;;;2.60;1.73;;;20.00;61.00;;;;;;5166219;27;45289;-71
2023/05/28 02:58:48;;;;;;;4.18;1.95;;;20.00;61.10;;;;;;5164881;27;48441;-69
2023/05/28 03:01:15;;;;;;;2.90;1.60;;;20.00;61.10;;;;;;5165343;27;45403;-68
2023/05/28 03:03:42;;;;;;;3.35;1.83;;;20.00;61.20;;;;;;5165161;27;45398;-69
2023/05/28 03:06:09;;;;;;;2.97;1.98;;;20.00;61.10;;;;;;5163896;27;45452;-68
2023/05/28 03:08:37;;;;;;;3.25;1.92;;;20.00;61.10;;;;;;5166468;27;46350;-68
2023/05/28 03:11:04;;;;;;;4.65;1.98;;;20.00;61.10;;;;;;5166060;27;45429;-68
2023/05/28 03:13:31;;;;;;;4.03;1.88;;;20.00;61.20;;;;;;5158692;27;45394;-68
2023/05/28 03:15:58;;;;;;;4.88;2.00;;;20.00;61.20;;;;;;5162408;27;45430;-72
2023/05/28 03:18:24;;;;;;;3.13;2.00;;;20.00;61.20;;;;;;5158057;27;46438;-69
2023/05/28 03:20:51;;;;;;;2.85;2.13;;;20.00;61.20;;;;;;5163156;27;46102;-69
2023/05/28 03:23:18;;;;;;;2.80;2.00;;;20.00;61.20;;;;;;5168644;27;45269;-69
2023/05/28 03:25:46;;;;;;;4.45;2.00;;;20.00;61.20;;;;;;5171566;27;45553;-69
2023/05/28 03:28:13;;;;;;;4.43;1.70;;;20.00;61.10;;;;;;5163356;27;46418;-69
2023/05/28 03:30:40;;;;;;;3.97;1.98;;;20.00;61.10;;;;;;5165298;27;45299;-69
2023/05/28 03:33:07;;;;;;;2.78;1.88;;;20.00;62.10;;;;;;5165471;27;45366;-69
2023/05/28 03:35:33;;;;;;;1.83;1.58;;;20.00;61.00;;;;;;5166019;27;45525;-69
2023/05/28 03:38:00;;;;;;;3.20;2.35;;;20.00;61.00;;;;;;5162581;27;45233;-69
2023/05/28 03:40:27;;;;;;;4.22;2.03;;;20.00;61.00;;;;;;5165700;27;45385;-69
2023/05/28 03:42:55;;;;;;;2.92;1.83;;;20.00;61.00;;;;;;5163786;27;45329;-69
2023/05/28 03:45:22;;;;;;;4.10;2.28;;;20.00;60.90;;;;;;5156085;27;45208;-69
2023/05/28 03:47:49;;;;;;;3.47;2.13;;;20.00;60.80;;;;;;5165427;27;46617;-69
2023/05/28 03:50:16;;;;;;;3.35;2.20;;;20.00;60.90;;;;;;5159211;27;45421;-69
2023/05/28 03:52:42;;;;;;;3.15;1.77;;;20.00;60.90;;;;;;5164975;27;45505;-70
2023/05/28 03:55:10;;;;;;;3.60;2.08;;;20.00;60.80;;;;;;5166876;27;45295;-70
2023/05/28 03:57:37;;;;;;;4.32;2.28;;;20.00;60.90;;;;;;5165028;27;46569;-70
2023/05/28 04:00:09;;;;;;;3.72;2.10;;;20.00;60.80;;;;;;5158180;27;45992;-69
2023/05/28 04:02:35;;;;;;;5.57;1.92;;;19.90;60.80;;;;;;5157641;27;45346;-69
2023/05/28 04:05:02;;;;;;;4.15;2.20;;;20.00;60.90;;;;;;5167712;27;45560;-69
2023/05/28 04:07:29;;;;;;;4.38;2.13;;;20.00;60.80;;;;;;5164460;27;46506;-70
2023/05/28 04:09:56;;;;;;;3.60;2.20;;;19.90;60.70;;;;;;5165388;27;45469;-69
2023/05/28 04:12:23;;;;;;;2.75;1.80;;;20.00;60.80;;;;;;5162592;27;45567;-69
2023/05/28 04:14:49;;;;;;;3.67;2.03;;;20.00;60.80;;;;;;5161504;27;45396;-69
2023/05/28 04:17:18;;;;;;;4.50;2.33;;;19.90;60.60;;;;;;5164771;27;45228;-69
2023/05/28 04:19:45;;;;;;;3.13;1.92;;;19.90;60.50;;;;;;5165231;27;45280;-69
2023/05/28 04:22:12;;;;;;;3.00;1.98;;;19.90;60.30;;;;;;5158989;27;45349;-69
2023/05/28 04:24:39;;;;;;;4.53;2.38;;;19.90;60.40;;;;;;5153926;27;45636;-69
2023/05/28 04:27:06;;;;;;;4.65;2.60;;;19.90;60.60;;;;;;5160561;27;45530;-69
2023/05/28 04:29:33;;;;;;;4.63;2.00;;;19.90;61.00;;;;;;5154051;27;45408;-69
2023/05/28 04:32:00;;;;;;;5.00;2.20;;;19.90;60.90;;;;;;5163518;27;45392;-69
2023/05/28 04:34:28;;;;;;;5.07;2.45;;;20.00;61.10;;;;;;5165466;27;45418;-69
2023/05/28 04:36:56;;;;;;;6.75;2.58;;;19.90;61.00;;;;;;5164429;27;46232;-69
2023/05/28 04:39:23;;;;;;;3.65;2.15;;;19.90;61.20;;;;;;5156497;27;45298;-69
2023/05/28 04:41:50;;;;;;;3.40;1.90;;;19.90;61.20;;;;;;5164082;27;45287;-70
2023/05/28 04:44:17;;;;;;;3.35;1.90;;;19.90;61.30;;;;;;5161870;27;45515;-69
2023/05/28 04:46:45;;;;;;;4.85;2.28;;;19.90;61.40;;;;;;5159701;27;47565;-69
2023/05/28 04:49:12;;;;;;;4.20;2.20;;;19.90;61.40;;;;;;5164480;27;45375;-69
2023/05/28 04:51:41;;;;;;;2.55;1.85;;;19.90;61.50;;;;;;5157010;27;45435;-69
2023/05/28 04:54:07;;;;;;;2.90;1.88;;;20.00;61.60;;;;;;5167831;27;45442;-70
2023/05/28 04:56:34;;;;;;;3.40;2.10;;;19.90;61.20;;;;;;5164182;27;46300;-69
2023/05/28 04:59:04;;;;;;;4.38;2.35;;;19.90;60.90;;;;;;5163111;27;45443;-70
2023/05/28 05:01:32;;;;;;;3.67;2.25;;;19.90;60.60;;;;;;5155832;27;45406;-70
2023/05/28 05:03:59;;;;;;;5.05;2.05;;;19.90;60.40;;;;;;5160563;27;45424;-69
2023/05/28 05:06:25;;;;;;;4.20;2.33;;;19.90;60.40;;;;;;5167752;27;48700;-70
2023/05/28 05:08:54;;;;;;;2.67;2.03;;;19.90;60.30;;;;;;5167244;27;45318;-70
2023/05/28 05:11:21;;;;;;;3.28;2.13;;;19.90;60.30;;;;;;5168502;27;45354;-73
2023/05/28 05:13:48;;;;;;;4.35;2.30;;;19.90;60.50;;;;;;5165492;27;45600;-73
2023/05/28 05:16:16;;;;;;;4.35;2.05;;;19.90;60.70;;;;;;5158987;27;46622;-71
2023/05/28 05:18:43;;;;;;;4.55;2.10;;;19.90;60.80;;;;;;5167948;27;45474;-71
2023/05/28 05:21:12;;;;;;;4.68;2.17;;;19.90;60.90;;;;;;5167185;27;45466;-71
2023/05/28 05:23:39;;;;;;;4.90;2.15;;;19.90;61.00;;;;;;5167877;27;45595;-69
2023/05/28 05:26:09;;;;;;;4.90;2.60;;;20.00;61.10;;;;;;5166932;27;48298;-70
2023/05/28 05:28:36;;;;;;;5.22;2.63;;;20.00;61.20;;;;;;5165408;27;45334;-69
2023/05/28 05:31:03;;;;;;;5.82;1.92;;;20.00;61.30;;;;;;5166838;27;45374;-70
2023/05/28 05:33:29;;;;;;;3.45;1.83;;;20.00;61.30;;;;;;5167710;27;45472;-69
2023/05/28 05:35:56;;;;;;;3.72;2.22;;;20.00;61.40;;;;;;5167284;27;45268;-69
2023/05/28 05:38:23;;;;;;;3.55;2.03;;;20.00;61.50;;;;;;5150421;27;46087;-69
2023/05/28 05:40:50;;;;;;;2.97;1.92;;;20.00;61.60;;;;;;5159928;27;45281;-69
2023/05/28 05:43:18;;;;;;;3.92;2.00;;;20.00;61.60;;;;;;5167268;27;45564;-69
2023/05/28 05:45:45;;;;;;;2.70;2.00;;;20.00;61.70;;;;;;5169340;27;47379;-70
2023/05/28 05:48:12;;;;;;;4.28;2.13;;;20.00;61.70;;;;;;5175869;27;45730;-69
2023/05/28 05:50:49;;;;;;;4.05;2.30;;;20.00;61.80;;;;;;5161233;27;45455;-70
2023/05/28 05:53:16;;;;;;;3.45;1.92;;;20.00;61.90;;;;;;5164731;27;45801;-69
2023/05/28 05:55:43;;;;;;;5.20;2.13;;;20.00;61.90;;;;;;5157341;27;46582;-69
2023/05/28 05:58:10;;;;;;;3.78;2.05;;;20.00;61.90;;;;;;5157904;27;45322;-70
2023/05/28 06:00:38;;;;;;;5.18;2.60;;;20.00;61.90;;;;;;5165399;27;45509;-69
2023/05/28 06:03:06;;;;;;;4.35;1.90;;;20.00;63.00;;;;;;5164297;27;45260;-70
2023/05/28 06:05:33;;;;;;;4.10;2.03;;;20.00;61.90;;;;;;5166342;27;45462;-69
2023/05/28 06:08:00;;;;;;;3.75;1.92;;;20.00;62.00;;;;;;5166162;27;45372;-70
2023/05/28 06:10:26;;;;;;;3.05;1.90;;;20.00;61.90;;;;;;5166657;27;45371;-69
2023/05/28 06:12:53;;;;;;;3.88;1.83;;;20.00;61.90;;;;;;5158235;27;45513;-69
2023/05/28 06:15:21;;;;;;;3.05;1.83;;;20.10;62.00;;;;;;5161988;27;46114;-70
2023/05/28 06:17:49;;;;;;;4.13;2.25;;;20.10;61.90;;;;;;5166458;27;45340;-69
2023/05/28 06:20:16;;;;;;;3.13;1.73;;;20.10;61.90;;;;;;5162907;27;45416;-69
2023/05/28 06:22:42;;;;;;;3.85;1.80;;;20.00;61.80;;;;;;5156055;27;45402;-69
2023/05/28 06:25:09;;;;;;;3.10;2.08;;;20.10;61.90;;;;;;5159013;27;46583;-69
2023/05/28 06:27:36;;;;;;;2.75;1.70;;;20.10;61.90;;;;;;5165712;27;46383;-70
2023/05/28 06:30:03;;;;;;;2.75;1.63;;;20.10;62.00;;;;;;5175596;27;45327;-69
2023/05/28 06:32:30;;;;;;;2.58;1.67;;;20.00;61.90;;;;;;5166561;27;45299;-70
2023/05/28 06:34:58;;;;;;;2.63;1.80;;;20.10;62.00;;;;;;5159333;27;47518;-70
2023/05/28 06:37:25;;;;;;;3.33;1.65;;;20.10;61.90;;;;;;5153906;27;45363;-69
2023/05/28 06:39:52;;;;;;;3.20;1.70;;;20.10;62.00;;;;;;5164852;27;45416;-69
2023/05/28 06:42:19;;;;;;;2.72;1.60;;;20.10;62.00;;;;;;5166608;27;45387;-70
2023/05/28 06:44:45;;;;;;;3.80;1.83;;;20.00;62.00;;;;;;5161230;27;46346;-69
2023/05/28 06:47:12;;;;;;;2.83;1.58;;;20.10;62.10;;;;;;5164038;27;46462;-70
2023/05/28 06:49:39;;;;;;;3.60;1.73;;;20.10;62.10;;;;;;5162037;27;45292;-69
2023/05/28 06:52:07;;;;;;;2.33;1.70;;;20.10;62.10;;;;;;5152516;27;45651;-69
2023/05/28 06:54:34;;;;;;;2.92;1.85;;;20.10;62.10;;;;;;5167333;27;47555;-69
2023/05/28 06:57:01;;;;;;;3.33;1.90;;;20.10;62.10;;;;;;5160870;27;45438;-70
2023/05/28 06:59:28;;;;;;;2.38;1.35;;;20.10;62.10;;;;;;5154668;27;45517;-70
2023/05/28 07:01:55;;;;;;;2.97;1.48;;;20.10;62.10;;;;;;5158831;27;45291;-70
2023/05/28 07:04:22;;;;;;;3.47;1.73;;;20.10;62.10;;;;;;5165227;27;48057;-70
2023/05/28 07:06:49;;;;;;;3.45;1.67;;;20.10;62.10;;;;;;5152724;27;45496;-69
2023/05/28 07:09:17;;;;;;;3.65;1.58;;;20.10;62.00;;;;;;5164517;27;45385;-72
2023/05/28 07:11:44;;;;;;;2.85;1.50;;;20.10;62.10;;;;;;5155579;27;45655;-73
2023/05/28 07:14:10;;;;;;;3.17;1.70;;;20.10;62.10;;;;;;5158041;27;47050;-72
2023/05/28 07:16:37;;;;;;;3.30;1.65;;;20.10;62.10;;;;;;5147918;27;45408;-71
2023/05/28 07:19:04;;;;;;;2.38;1.50;;;20.10;62.20;;;;;;5161633;27;45319;-70
2023/05/28 07:21:31;;;;;;;2.38;1.33;;;20.10;62.20;;;;;;5165093;27;45510;-69
2023/05/28 07:23:58;;;;;;;2.25;1.48;;;20.10;62.20;;;;;;5158651;27;48235;-70
2023/05/28 07:26:26;;;;;;;3.90;1.83;;;20.10;62.20;;;;;;5149128;27;45605;-71
2023/05/28 07:28:53;;;;;;;2.15;1.38;;;20.10;62.30;;;;;;5158950;27;46182;-70
2023/05/28 07:31:20;;;;;;;2.30;1.60;;;20.10;62.30;;;;;;5154155;27;45835;-70
2023/05/28 07:33:47;;;;;;;3.30;1.95;;;20.10;62.40;;;;;;5157394;27;46336;-69
2023/05/28 07:36:13;;;;;;;2.33;1.50;;;20.10;62.40;;;;;;5156681;27;45380;-70
2023/05/28 07:38:40;;;;;;;2.20;1.60;;;20.10;62.60;;;;;;5153954;27;45396;-70
2023/05/28 07:41:07;;;;;;;3.92;1.70;;;20.10;62.60;;;;;;5162976;27;45293;-71
2023/05/28 07:43:35;;;;;;;3.90;1.83;;;20.10;62.60;;;;;;5165881;27;46073;-72
2023/05/28 07:46:02;;;;;;;2.80;1.48;;;20.10;63.00;;;;;;5163153;27;45334;-71
2023/05/28 07:48:29;;;;;;;3.80;1.70;;;20.20;63.10;;;;;;5158281;27;45423;-73
2023/05/28 07:50:55;;;;;;;3.50;1.83;;;20.20;63.00;;;;;;5159620;27;45465;-71
2023/05/28 07:53:22;;;;;;;2.90;1.60;;;20.20;63.10;;;;;;5160203;27;46572;-71
2023/05/28 07:55:49;;;;;;;2.05;1.50;;;20.20;63.10;;;;;;5156123;27;45540;-71
2023/05/28 07:58:16;;;;;;;3.53;1.90;;;20.20;63.10;;;;;;5162672;27;45469;-70
2023/05/28 08:00:44;;;;;;;2.88;1.60;;;20.20;63.10;;;;;;5157341;27;45448;-73
2023/05/28 08:03:11;;;;;;;2.78;1.70;;;20.30;63.10;;;;;;5159996;27;47566;-70
2023/05/28 08:05:38;;;;;;;2.50;1.30;;;20.30;63.10;;;;;;5165461;27;45469;-73
2023/05/28 08:08:05;;;;;;;4.80;1.77;;;20.30;63.10;;;;;;5155852;27;45303;-71
2023/05/28 08:10:31;;;;;;;3.70;1.55;;;20.30;63.10;;;;;;5151178;27;45383;-72
2023/05/28 08:12:58;;;;;;;1.83;1.52;;;20.30;63.10;;;;;;5152430;27;47744;-72
2023/05/28 08:15:25;;;;;;;2.45;1.20;;;20.30;63.10;;;;;;5153080;27;45587;-70
2023/05/28 08:17:53;;;;;;;3.65;1.70;;;20.30;63.10;;;;;;5149756;27;45394;-71
2023/05/28 08:20:22;;;;;;;3.28;1.70;;;20.30;63.30;;;;;;5158555;27;45490;-71
2023/05/28 08:22:49;;;;;;;7.15;2.00;;;20.30;63.40;;;;;;5165099;27;48498;-71
2023/05/28 08:25:15;;;;;;;3.17;1.75;;;20.30;63.50;;;;;;5162104;27;45288;-73
2023/05/28 08:27:42;;;;;;;2.85;1.77;;;20.30;63.60;;;;;;5151917;27;45234;-73
2023/05/28 08:30:10;;;;;;;5.32;2.03;;;20.20;63.60;;;;;;5153870;27;45482;-73
2023/05/28 08:32:37;;;;;;;2.38;1.45;;;20.20;63.60;;;;;;5158293;27;48658;-72
2023/05/28 08:35:06;;;;;;;4.75;2.00;;;20.20;63.80;;;;;;5158122;27;45386;-71
2023/05/28 08:37:33;;;;;;;2.67;1.80;;;20.20;63.80;;;;;;5156030;27;45361;-70
2023/05/28 08:39:59;;;;;;;2.20;1.50;;;20.20;63.90;;;;;;5156780;27;46139;-71
2023/05/28 08:42:28;;;;;;;3.15;1.80;;;20.20;63.70;;;;;;5167978;27;47117;-72
2023/05/28 08:44:55;;;;;;;3.22;1.70;;;20.20;64.00;;;;;;5158515;27;45847;-72
2023/05/28 08:47:22;;;;;;;2.42;1.45;;;20.20;63.50;;;;;;5168001;27;45305;-72
2023/05/28 08:49:53;;;;;;;4.10;1.80;;;20.20;63.70;;;;;;5153391;27;45505;-71
2023/05/28 08:52:23;;;;;;;2.38;1.52;;;20.20;63.80;;;;;;5162131;27;45570;-73
2023/05/28 08:54:50;;;;;;;3.25;1.70;;;20.20;63.90;;;;;;5168780;27;45336;-73
2023/05/28 08:57:17;;;;;;;2.45;1.48;;;20.20;64.30;;;;;;5156622;27;45468;-71
2023/05/28 08:59:45;;;;;;;2.30;1.50;;;20.20;63.90;;;;;;5153970;27;45246;-70
2023/05/28 09:02:13;;;;;;;3.80;1.38;;;20.20;64.00;;;;;;5150345;27;46416;-70
2023/05/28 09:04:41;;;;;;;3.13;1.60;;;20.20;63.90;;;;;;5164167;27;45433;-70
2023/05/28 09:07:07;;;;;;;2.90;1.52;;;20.20;63.90;;;;;;5157305;27;45396;-70
2023/05/28 09:09:37;;;;;;;3.58;1.70;;;20.20;63.90;;;;;;5168126;27;45421;-70
2023/05/28 09:12:05;;;;;;;2.67;1.70;;;20.20;64.00;;;;;;5150923;27;47308;-69
2023/05/28 09:14:40;;;;;;;2.33;1.40;;;20.20;63.90;;;;;;5166439;27;45500;-70
2023/05/28 09:17:08;;;;;;;3.53;1.45;;;20.20;63.90;;;;;;5166697;27;45533;-69
2023/05/28 09:19:35;;;;;;;2.13;1.50;;;20.20;63.80;;;;;;5164930;27;45603;-70
2023/05/28 09:22:03;;;;;;;1.67;1.40;;;20.20;63.80;;;;;;5156416;27;46602;-69
2023/05/28 09:24:30;;;;;;;2.72;1.42;;;20.20;63.80;;;;;;5171780;27;45431;-70
2023/05/28 09:27:00;;;;;;;2.53;1.67;;;20.20;63.80;;;;;;5161854;27;45485;-70
2023/05/28 09:29:28;;;;;;;1.92;1.27;;;20.20;63.80;;;;;;5153613;27;45395;-70
2023/05/28 09:31:59;;;;;;;3.72;1.75;;;20.20;63.70;;;;;;5157626;27;48044;-69
2023/05/28 09:34:29;;;;;;;3.08;1.48;;;20.20;63.60;;;;;;5165859;27;45430;-70
2023/05/28 09:37:00;;;;;;;3.22;1.25;;;20.20;63.50;;;;;;5153346;27;45495;-69
2023/05/28 09:39:27;;;;;;;2.63;1.70;;;20.20;63.40;;;;;;5153420;27;45519;-70
2023/05/28 09:42:06;;;;;;;2.50;1.50;;;20.20;63.20;;;;;;5150288;27;47921;-70
2023/05/28 09:44:33;;;;;;;2.95;1.40;;;20.20;63.30;;;;;;5157816;27;45356;-70
2023/05/28 09:47:00;;;;;;;2.45;1.38;;;20.20;63.20;;;;;;5160513;27;45387;-70
2023/05/28 09:49:29;;;;;;;2.90;1.60;;;20.20;63.20;;;;;;5156493;27;45373;-69
2023/05/28 09:51:59;;;;;;;2.47;1.40;;;20.20;63.30;;;;;;5150961;27;47647;-69
2023/05/28 09:54:28;;;;;;;2.08;1.20;;;20.20;63.30;;;;;;5158499;27;45677;-70
2023/05/28 09:56:58;;;;;;;2.38;1.20;;;20.20;63.30;;;;;;5155016;27;45444;-69
2023/05/28 09:59:29;;;;;;;33.67;4.22;;;20.20;63.20;;;;;;5157835;27;45444;-69
2023/05/28 10:02:01;;;;;;;8.75;2.08;;;20.20;64.40;;;;;;5161724;27;45375;-69
2023/05/28 10:04:34;;;;;;;6.85;1.60;;;20.20;63.90;;;;;;5163124;27;45438;-70
2023/05/28 10:07:01;;;;;;;6.97;1.88;;;20.20;63.80;;;;;;5159521;27;45489;-69
2023/05/28 10:09:31;;;;;;;5.80;1.90;;;20.20;63.60;;;;;;5163404;27;45473;-70
2023/05/28 10:12:05;;;;;;;2.38;1.40;;;20.20;63.50;;;;;;5159867;27;48065;-69
2023/05/28 10:14:33;;;;;;;2.53;1.52;;;20.20;63.30;;;;;;5158952;27;45359;-69
2023/05/28 10:17:00;;;;;;;6.78;1.50;;;20.20;63.30;;;;;;5159435;27;45488;-70
2023/05/28 10:19:28;;;;;;;6.25;1.30;;;20.20;63.10;;;;;;5163328;27;45484;-70
2023/05/28 10:21:56;;;;;;;3.55;1.70;;;20.20;64.00;;;;;;5151041;27;46568;-69
2023/05/28 10:24:24;;;;;;;4.72;1.70;;;20.20;63.10;;;;;;5156362;27;46272;-70
2023/05/28 10:26:51;;;;;;;4.10;1.73;;;20.20;62.80;;;;;;5160698;27;45386;-70
2023/05/28 10:29:18;;;;;;;5.05;1.70;;;20.20;62.70;;;;;;5167198;27;45263;-70
2023/05/28 10:31:57;;;;;;;2.90;1.45;;;20.20;62.60;;;;;;5161961;27;47157;-69
2023/05/28 10:34:30;;;;;;;3.38;1.70;;;20.20;62.60;;;;;;5154301;27;45434;-70
2023/05/28 10:36:57;;;;;;;6.53;1.60;;;20.20;63.10;;;;;;5157048;27;45507;-70
2023/05/28 10:39:24;;;;;;;6.20;1.65;;;20.30;62.90;;;;;;5165242;27;45475;-70
2023/05/28 10:41:51;;;;;;;2.58;1.48;;;20.30;62.80;;;;;;5159340;27;46093;-69
2023/05/28 10:44:18;;;;;;;5.40;1.60;;;20.30;62.80;;;;;;5167768;27;45277;-71
2023/05/28 10:46:55;;;;;;;2.30;1.40;;;20.30;62.50;;;;;;5164808;27;45347;-72
2023/05/28 10:49:23;;;;;;;2.65;1.50;;;20.30;62.40;;;;;;5166277;27;45377;-72
2023/05/28 10:51:57;;;;;;;2.30;1.50;;;20.30;62.40;;;;;;5158551;27;45425;-71
2023/05/28 10:54:39;;;;;;;3.03;1.60;;;20.30;62.30;;;;;;5161416;27;45341;-70
2023/05/28 10:57:14;;;;;;;4.50;1.80;;;20.30;62.20;;;;;;5167044;27;45396;-73
2023/05/28 10:59:46;;;;;;;5.30;1.50;;;20.30;63.00;;;;;;5160625;27;45390;-73
2023/05/28 11:02:18;;;;;;;4.28;1.40;;;20.30;62.80;;;;;;5156460;27;46699;-70
2023/05/28 11:04:45;;;;;;;3.78;1.50;;;20.30;62.70;;;;;;5162167;27;45335;-70
2023/05/28 11:07:13;;;;;;;3.58;1.30;;;20.30;62.40;;;;;;5155596;27;45424;-69
2023/05/28 11:09:40;;;;;;;5.35;2.00;;;20.30;62.40;;;;;;5156345;27;45402;-70
2023/05/28 11:12:08;;;;;;;4.20;1.73;;;20.30;63.30;;;;;;5162811;27;47392;-73
2023/05/28 11:14:36;;;;;;;3.63;2.15;;;20.40;62.40;;;;;;5160751;27;45637;-71
2023/05/28 11:17:07;;;;;;;3.95;1.55;;;20.40;62.10;;;;;;5162697;27;45385;-70
2023/05/28 11:19:42;;;;;;;3.58;1.70;;;20.40;61.70;;;;;;5172023;27;45333;-73
2023/05/28 11:22:10;;;;;;;2.00;1.40;;;20.50;61.60;;;;;;5159940;27;48479;-72
2023/05/28 11:24:58;;;;;;;2.42;1.38;;;20.50;61.50;;;;;;5144834;27;45492;-70
2023/05/28 11:27:26;;;;;;;2.38;1.60;;;20.50;61.40;;;;;;5159247;27;45567;-69
2023/05/28 11:29:55;;;;;;;2.20;1.27;;;20.50;61.00;;;;;;5159732;27;45541;-70
2023/05/28 11:32:22;;;;;;;2.85;1.63;;;20.50;60.60;;;;;;5164429;27;47772;-72
2023/05/28 11:34:51;;;;;;;2.35;1.27;;;20.50;60.40;;;;;;5150919;27;45363;-73
2023/05/28 11:37:24;;;;;;;3.85;1.63;;;20.50;60.80;;;;;;5155035;27;45307;-71
2023/05/28 11:39:52;;;;;;;4.50;1.58;;;20.50;61.30;;;;;;5166787;27;45429;-70
2023/05/28 11:42:20;;;;;;;3.63;2.00;;;20.50;61.20;;;;;;5156410;27;46383;-71
2023/05/28 11:44:47;;;;;;;3.30;1.75;;;20.50;61.70;;;;;;5166749;27;45328;-73
2023/05/28 11:47:14;;;;;;;3.40;1.52;;;20.60;60.70;;;;;;5150333;27;45420;-73
2023/05/28 11:49:42;;;;;;;1.85;1.27;;;20.50;60.30;;;;;;5147214;27;45557;-71
2023/05/28 11:52:14;;;;;;;3.80;1.40;;;20.50;60.30;;;;;;5146269;27;45499;-71
2023/05/28 11:54:41;;;;;;;2.88;1.40;;;20.50;60.40;;;;;;5150652;27;45480;-70
2023/05/28 11:57:09;;;;;;;2.85;1.52;;;20.50;60.80;;;;;;5159101;27;45355;-70
2023/05/28 11:59:36;;;;;;;3.42;1.48;;;20.50;60.80;;;;;;5165265;27;45524;-71
2023/05/28 12:02:14;;;;;;;3.00;1.48;;;20.50;60.90;;;;;;5164901;27;46606;-71
2023/05/28 12:04:40;;;;;;;2.60;1.35;;;20.50;60.70;;;;;;5165466;27;45297;-69
2023/05/28 12:07:08;;;;;;;4.95;1.40;;;20.60;60.80;;;;;;5162901;27;45487;-70
2023/05/28 12:09:36;;;;;;;2.58;1.40;;;20.50;60.70;;;;;;5156934;27;45406;-70
2023/05/28 12:12:11;;;;;;;1.77;1.30;;;20.50;60.80;;;;;;5153768;27;45292;-70
2023/05/28 12:14:38;;;;;;;3.47;1.30;;;20.50;60.80;;;;;;5159098;27;45236;-70
2023/05/28 12:17:06;;;;;;;2.63;1.50;;;20.50;61.00;;;;;;5167866;27;45326;-69
2023/05/28 12:19:33;;;;;;;2.50;1.30;;;20.50;61.00;;;;;;5168966;27;45425;-70
2023/05/28 12:22:00;;;;;;;1.77;1.30;;;20.50;61.20;;;;;;5168846;27;47512;-69
2023/05/28 12:24:28;;;;;;;2.00;1.40;;;20.50;61.00;;;;;;5171200;27;45337;-70
2023/05/28 12:26:56;;;;;;;2.72;1.42;;;20.50;60.80;;;;;;5157598;27;45388;-70
2023/05/28 12:29:24;;;;;;;2.67;1.50;;;20.50;60.50;;;;;;5160095;27;45335;-70
2023/05/28 12:31:58;;;;;;;2.35;1.40;;;20.50;60.30;;;;;;5149127;27;46298;-69
2023/05/28 12:34:26;;;;;;;1.83;1.00;;;20.50;60.40;;;;;;5158956;27;45378;-70
2023/05/28 12:36:52;;;;;;;2.33;1.40;;;20.50;60.40;;;;;;5161374;27;45389;-70
2023/05/28 12:39:19;;;;;;;4.95;1.70;;;20.50;60.50;;;;;;5171625;27;45584;-69
2023/05/28 12:41:46;;;;;;;2.50;1.20;;;20.40;60.50;;;;;;5162070;27;48110;-70
2023/05/28 12:44:14;;;;;;;2.72;1.48;;;20.40;60.60;;;;;;5154659;27;45526;-70
2023/05/28 12:46:42;;;;;;;3.65;1.58;;;20.40;60.50;;;;;;5166389;27;45293;-69
2023/05/28 12:49:09;;;;;;;2.47;1.40;;;20.40;60.80;;;;;;5168752;27;45261;-69
2023/05/28 12:51:36;;;;;;;2.55;1.30;;;20.40;60.80;;;;;;5161720;27;47346;-69